Time;durP1;ratioP1;P1;durP2;ratioP2;P2;SDS_P1;SDS_P2;PMS_P1;PMS_P2;Temp;Humidity;BMP_temperature;BMP_pressure;BME280_temperature;BME280_humidity;BME280_pressure;Samples;Min_cycle;Max_cycle;Signal;HPM_P1;HPM_P2
2022/05/06 00:00:20;;;;;;;59.42;28.60;;;10.40;99.90;;;;;;4996795;28;20373;-84
2022/05/06 00:02:46;;;;;;;63.50;27.65;;;10.40;99.90;;;;;;5010016;28;20077;-84
2022/05/06 00:05:11;;;;;;;62.65;30.08;;;10.30;99.90;;;;;;5030457;28;20052;-84
2022/05/06 00:07:37;;;;;;;67.75;29.85;;;10.30;99.90;;;;;;4996574;28;20046;-84
2022/05/06 00:10:05;;;;;;;71.65;31.17;;;10.40;99.90;;;;;;4996759;28;20057;-84
2022/05/06 00:12:31;;;;;;;58.88;27.42;;;10.30;99.90;;;;;;4996537;28;20508;-84
2022/05/06 00:14:57;;;;;;;60.28;28.48;;;10.30;99.90;;;;;;4996794;28;20050;-84
2022/05/06 00:17:22;;;;;;;63.53;28.33;;;10.30;99.90;;;;;;4996539;28;20046;-84
2022/05/06 00:19:48;;;;;;;67.95;31.38;;;10.40;99.90;;;;;;5012276;28;20073;-84
2022/05/06 00:22:17;;;;;;;63.50;30.27;;;10.30;99.90;;;;;;5013637;28;20056;-84
2022/05/06 00:24:42;;;;;;;67.53;30.63;;;10.30;99.90;;;;;;4996350;28;20103;-84
2022/05/06 00:27:08;;;;;;;60.58;29.13;;;10.20;99.90;;;;;;4996412;28;20053;-84
2022/05/06 00:29:33;;;;;;;62.42;29.17;;;10.40;99.90;;;;;;5013777;28;20038;-84
2022/05/06 00:32:01;;;;;;;68.65;30.08;;;10.30;99.90;;;;;;4996111;28;20057;-84
2022/05/06 00:34:27;;;;;;;66.55;29.65;;;10.20;99.90;;;;;;4996196;28;20078;-84
2022/05/06 00:36:55;;;;;;;63.88;31.50;;;10.10;99.90;;;;;;5013786;28;20460;-84
2022/05/06 00:39:21;;;;;;;70.70;31.52;;;10.70;99.90;;;;;;4996231;28;20050;-84
2022/05/06 00:41:46;;;;;;;66.82;31.02;;;10.20;99.90;;;;;;5013790;28;20100;-84
2022/05/06 00:44:12;;;;;;;73.30;33.88;;;10.10;99.90;;;;;;4996462;28;20041;-84
2022/05/06 00:46:38;;;;;;;71.07;32.92;;;10.10;99.90;;;;;;4996211;28;20077;-84
2022/05/06 00:49:08;;;;;;;76.93;33.25;;;10.20;99.90;;;;;;5013787;28;20117;-84
2022/05/06 00:51:34;;;;;;;64.53;31.25;;;10.10;99.90;;;;;;4996300;28;20440;-84
2022/05/06 00:54:00;;;;;;;72.78;32.70;;;10.10;99.90;;;;;;4996124;28;20046;-84
2022/05/06 00:56:26;;;;;;;71.22;32.08;;;10.10;99.90;;;;;;4996075;28;20050;-84
2022/05/06 00:58:52;;;;;;;72.32;31.50;;;10.00;99.90;;;;;;4996306;28;20045;-84
2022/05/06 01:01:19;;;;;;;73.82;33.33;;;10.20;99.90;;;;;;4996265;28;20068;-84
2022/05/06 01:03:45;;;;;;;62.45;30.80;;;10.00;99.90;;;;;;5013689;28;20128;-84
2022/05/06 01:06:13;;;;;;;56.25;28.38;;;10.00;99.90;;;;;;4995727;28;20050;-84
2022/05/06 01:08:40;;;;;;;60.17;27.60;;;9.90;99.90;;;;;;4996065;28;20042;-84
2022/05/06 01:11:07;;;;;;;52.80;24.58;;;9.90;99.90;;;;;;5014066;28;20038;-84
2022/05/06 01:13:40;;;;;;;44.70;21.85;;;9.70;99.90;;;;;;4996493;28;20184;-84
2022/05/06 01:16:06;;;;;;;35.75;19.10;;;9.80;99.90;;;;;;5014958;28;20066;-84
2022/05/06 01:18:32;;;;;;;34.58;19.33;;;9.60;99.90;;;;;;5013428;28;20042;-84
2022/05/06 01:21:00;;;;;;;35.03;18.80;;;9.40;99.90;;;;;;5008461;28;20042;-84
2022/05/06 01:23:26;;;;;;;36.58;19.40;;;9.30;99.90;;;;;;5007989;28;20389;-84
2022/05/06 01:25:52;;;;;;;37.53;19.60;;;9.30;99.90;;;;;;4995936;28;20042;-84
2022/05/06 01:28:21;;;;;;;42.10;21.20;;;9.30;99.90;;;;;;4998837;28;20057;-84
2022/05/06 01:30:47;;;;;;;43.42;21.98;;;9.20;99.90;;;;;;4999629;28;20050;-84
2022/05/06 01:33:21;;;;;;;43.65;21.90;;;9.20;99.90;;;;;;4998646;28;20058;-84
2022/05/06 01:35:51;;;;;;;42.65;20.83;;;9.30;99.90;;;;;;4999333;28;20081;-84
2022/05/06 01:38:24;;;;;;;35.58;20.55;;;9.20;99.90;;;;;;5017011;28;20038;-84
2022/05/06 01:40:56;;;;;;;42.85;19.95;;;9.40;99.90;;;;;;5015834;28;20385;-84
2022/05/06 01:43:24;;;;;;;36.50;19.25;;;9.10;99.90;;;;;;4983281;28;20390;-84
2022/05/06 01:45:52;;;;;;;42.78;20.02;;;9.00;99.90;;;;;;5016530;28;20048;-84
2022/05/06 01:48:20;;;;;;;35.70;19.60;;;9.20;99.90;;;;;;4982993;28;20384;-84
2022/05/06 01:50:55;;;;;;;36.22;19.42;;;9.50;99.90;;;;;;4999174;28;20088;-84
2022/05/06 01:53:21;;;;;;;31.80;19.10;;;9.00;99.90;;;;;;4999038;28;20524;-84
2022/05/06 01:55:47;;;;;;;32.90;19.15;;;9.00;99.90;;;;;;4982788;28;20136;-84
2022/05/06 01:58:13;;;;;;;33.95;19.30;;;9.00;99.90;;;;;;5016388;28;20050;-84
2022/05/06 02:00:38;;;;;;;33.03;19.20;;;9.20;99.90;;;;;;4998703;28;20045;-84
2022/05/06 02:03:04;;;;;;;39.42;20.92;;;9.10;99.90;;;;;;5016469;28;20034;-84
2022/05/06 02:05:30;;;;;;;40.63;21.05;;;9.00;99.90;;;;;;4998645;28;20137;-84
2022/05/06 02:07:56;;;;;;;47.72;21.52;;;9.10;99.90;;;;;;4998986;28;20125;-84
2022/05/06 02:10:23;;;;;;;40.67;20.50;;;9.00;99.90;;;;;;5016372;28;20050;-84
2022/05/06 02:12:49;;;;;;;41.10;21.73;;;9.10;99.90;;;;;;4998917;28;20421;-84
2022/05/06 02:15:17;;;;;;;43.53;22.25;;;9.10;99.90;;;;;;5016220;28;20042;-84
2022/05/06 02:17:43;;;;;;;43.28;21.77;;;9.10;99.90;;;;;;5016135;28;20042;-84
2022/05/06 02:20:10;;;;;;;41.85;22.63;;;9.10;99.90;;;;;;5004728;28;20061;-84
2022/05/06 02:22:42;;;;;;;40.10;22.60;;;9.10;99.90;;;;;;5002535;28;20389;-84
2022/05/06 02:25:09;;;;;;;42.30;22.35;;;9.20;99.90;;;;;;4998539;28;20057;-84
2022/05/06 02:27:38;;;;;;;42.13;21.80;;;9.20;99.90;;;;;;5015483;28;20081;-84
2022/05/06 02:35:36;;;;;;;50.78;25.33;;;9.40;99.90;;;;;;5014441;28;20049;-84
2022/05/06 02:38:03;;;;;;;47.92;24.85;;;9.50;99.90;;;;;;4998028;28;20547;-84
2022/05/06 02:40:29;;;;;;;49.35;25.45;;;9.50;99.90;;;;;;5015604;28;20057;-84
2022/05/06 02:42:55;;;;;;;53.45;26.30;;;9.60;99.90;;;;;;4997663;28;20124;-84
2022/05/06 02:45:22;;;;;;;55.30;26.10;;;9.60;99.90;;;;;;4997836;28;20081;-83
2022/05/06 02:47:47;;;;;;;59.92;27.15;;;9.70;99.90;;;;;;4997797;28;20481;-84
2022/05/06 02:50:13;;;;;;;60.40;27.83;;;9.70;99.90;;;;;;5015453;28;20052;-84
2022/05/06 02:52:39;;;;;;;63.17;27.98;;;9.80;99.90;;;;;;4997596;28;20133;-84
2022/05/06 02:55:05;;;;;;;68.25;29.90;;;9.90;99.90;;;;;;5015608;28;20121;-84
2022/05/06 02:57:30;;;;;;;69.10;28.60;;;9.90;99.90;;;;;;4997472;28;20397;-84
2022/05/06 02:59:56;;;;;;;94.47;31.30;;;10.00;99.90;;;;;;4997628;28;20045;-84
2022/05/06 03:02:23;;;;;;;70.43;29.17;;;10.10;99.90;;;;;;4997580;28;20042;-84
2022/05/06 03:04:49;;;;;;;62.50;27.63;;;10.10;99.90;;;;;;4997880;28;20046;-84
2022/05/06 03:07:14;;;;;;;70.20;28.73;;;10.20;99.90;;;;;;4997246;28;20501;-84
2022/05/06 03:09:41;;;;;;;75.38;29.98;;;10.20;99.90;;;;;;5015198;28;20058;-84
2022/05/06 03:12:07;;;;;;;72.97;29.60;;;10.40;99.90;;;;;;5015481;28;20555;-84
2022/05/06 03:14:33;;;;;;;64.75;27.73;;;10.30;99.90;;;;;;5016448;28;20038;-84
2022/05/06 03:16:59;;;;;;;64.65;27.60;;;10.30;99.90;;;;;;4997560;28;20042;-84
2022/05/06 03:19:25;;;;;;;70.07;29.80;;;10.60;99.90;;;;;;4997194;28;20038;-84
2022/05/06 03:21:54;;;;;;;99.22;31.15;;;10.40;99.90;;;;;;5013771;28;20058;-84
2022/05/06 03:24:20;;;;;;;95.97;31.27;;;10.40;99.90;;;;;;4997967;28;20465;-84
2022/05/06 03:26:45;;;;;;;92.38;31.08;;;10.40;99.90;;;;;;4996966;28;20128;-84
2022/05/06 03:29:12;;;;;;;97.68;32.22;;;10.40;99.90;;;;;;4997094;28;20125;-84
2022/05/06 03:31:38;;;;;;;101.70;32.20;;;10.70;99.90;;;;;;4996846;28;20489;-84
2022/05/06 03:34:03;;;;;;;122.47;34.67;;;10.50;99.90;;;;;;4997007;28;20045;-84
2022/05/06 03:36:29;;;;;;;111.05;32.78;;;10.40;99.90;;;;;;4996942;28;20136;-84
2022/05/06 03:38:55;;;;;;;119.28;33.70;;;10.40;99.90;;;;;;4999286;28;20050;-84
2022/05/06 03:41:21;;;;;;;117.03;33.13;;;10.40;99.90;;;;;;4996797;28;20054;-84
2022/05/06 03:43:47;;;;;;;109.28;33.90;;;10.40;99.90;;;;;;4996822;28;20046;-84
2022/05/06 03:46:13;;;;;;;131.25;35.05;;;10.40;99.90;;;;;;4996778;28;20080;-84
2022/05/06 03:48:38;;;;;;;115.53;34.67;;;10.80;99.90;;;;;;4997028;28;20052;-84
2022/05/06 03:51:20;;;;;;;108.35;33.75;;;10.40;99.90;;;;;;5014321;28;20096;-84
2022/05/06 03:53:50;;;;;;;111.28;35.35;;;10.40;99.90;;;;;;4996668;28;20053;-84
2022/05/06 03:56:17;;;;;;;113.60;32.92;;;10.40;99.90;;;;;;4996583;28;20049;-84
2022/05/06 03:58:43;;;;;;;108.22;33.22;;;10.50;99.90;;;;;;5014331;28;20111;-84
2022/05/06 04:01:09;;;;;;;141.50;34.40;;;10.50;99.90;;;;;;5014208;28;20489;-84
2022/05/06 04:03:35;;;;;;;120.60;34.25;;;10.50;99.90;;;;;;5014198;28;20069;-84
2022/05/06 04:06:03;;;;;;;101.90;32.92;;;10.50;99.90;;;;;;4996639;28;20416;-84
2022/05/06 04:08:28;;;;;;;112.85;35.30;;;10.50;99.90;;;;;;4996569;28;20088;-84
2022/05/06 04:10:55;;;;;;;126.82;35.28;;;10.90;99.90;;;;;;4996712;28;20050;-84
2022/05/06 04:13:21;;;;;;;144.32;37.85;;;10.50;99.90;;;;;;4996317;28;20433;-84
2022/05/06 04:15:46;;;;;;;109.18;32.92;;;10.50;99.90;;;;;;5014120;28;20057;-84
2022/05/06 04:18:13;;;;;;;122.30;33.58;;;10.80;99.90;;;;;;5012759;28;20128;-84
2022/05/06 04:23:29;;;;;;;123.00;34.90;;;10.70;99.90;;;;;;5014059;28;20061;-84
2022/05/06 04:26:01;;;;;;;132.82;37.45;;;10.50;99.90;;;;;;4996348;28;20485;-84
2022/05/06 04:28:34;;;;;;;129.18;34.05;;;10.50;99.90;;;;;;4996205;28;20497;-85
2022/05/06 04:31:00;;;;;;;144.13;32.28;;;10.60;99.90;;;;;;4996267;28;20053;-84
2022/05/06 04:33:26;;;;;;;150.80;27.73;;;10.50;99.90;;;;;;4995817;28;20053;-84
2022/05/06 04:35:53;;;;;;;137.27;28.38;;;10.50;99.90;;;;;;5014514;28;20401;-84
2022/05/06 04:38:19;;;;;;;142.43;24.00;;;10.50;99.90;;;;;;4997181;28;20045;-84
2022/05/06 04:40:44;;;;;;;110.13;22.00;;;10.90;99.90;;;;;;4979977;28;20049;-84
2022/05/06 04:43:11;;;;;;;81.82;19.35;;;10.50;99.90;;;;;;4996228;28;20054;-84
2022/05/06 04:45:41;;;;;;;68.65;17.05;;;10.70;99.90;;;;;;4996092;28;20050;-84
2022/05/06 04:48:08;;;;;;;73.28;17.88;;;10.60;99.90;;;;;;4996096;28;20053;-84
2022/05/06 04:50:34;;;;;;;57.47;17.10;;;10.70;99.90;;;;;;4996201;28;20056;-84
2022/05/06 04:53:01;;;;;;;54.72;13.88;;;10.70;99.90;;;;;;5018076;28;20128;-84
2022/05/06 04:55:27;;;;;;;33.83;12.27;;;10.80;99.90;;;;;;5014918;28;20060;-84
2022/05/06 04:57:52;;;;;;;55.85;13.35;;;10.60;99.90;;;;;;5013667;28;20041;-84
2022/05/06 05:00:22;;;;;;;35.88;11.70;;;10.60;99.90;;;;;;4996354;28;20077;-84
2022/05/06 05:02:48;;;;;;;34.08;11.65;;;10.60;99.90;;;;;;4996357;28;20073;-84
2022/05/06 05:05:14;;;;;;;34.00;11.77;;;10.80;99.90;;;;;;4995996;28;20042;-84
2022/05/06 05:07:40;;;;;;;53.15;10.98;;;10.70;99.90;;;;;;4998056;28;20056;-84
2022/05/06 05:10:06;;;;;;;45.90;10.82;;;10.60;99.90;;;;;;4983351;28;20041;-84
2022/05/06 05:12:32;;;;;;;47.90;10.82;;;10.60;99.90;;;;;;5017341;28;20049;-84
2022/05/06 05:14:58;;;;;;;56.28;11.52;;;10.60;99.90;;;;;;5017503;28;20375;-84
2022/05/06 05:17:23;;;;;;;45.60;10.43;;;10.50;99.90;;;;;;4999646;28;20050;-84
2022/05/06 05:19:49;;;;;;;45.95;10.60;;;10.50;99.90;;;;;;5017169;28;20049;-84
2022/05/06 05:22:15;;;;;;;42.80;10.48;;;10.50;99.90;;;;;;5017066;28;20385;-84
2022/05/06 05:24:41;;;;;;;47.42;10.48;;;10.80;99.90;;;;;;5015706;28;20061;-84
2022/05/06 05:27:06;;;;;;;19.58;9.13;;;10.60;99.90;;;;;;4999408;28;20112;-84
2022/05/06 05:29:32;;;;;;;34.67;9.45;;;10.40;99.90;;;;;;4999424;28;20057;-84
2022/05/06 05:31:58;;;;;;;28.30;9.85;;;10.50;99.90;;;;;;5016687;28;20054;-84
2022/05/06 05:34:23;;;;;;;29.42;10.23;;;10.40;99.90;;;;;;5017396;28;20061;-84
2022/05/06 05:36:52;;;;;;;24.17;9.73;;;10.50;99.90;;;;;;5016755;28;20441;-84
2022/05/06 05:39:18;;;;;;;46.03;10.43;;;10.60;99.90;;;;;;4999059;28;20047;-84
2022/05/06 05:41:44;;;;;;;22.15;8.40;;;10.60;99.90;;;;;;4999374;28;20096;-84
2022/05/06 05:49:38;;;;;;;20.92;7.90;;;10.60;99.90;;;;;;5016899;28;20050;-84
2022/05/06 05:52:04;;;;;;;20.48;8.70;;;10.70;99.90;;;;;;4999090;28;20109;-84
2022/05/06 05:54:30;;;;;;;23.73;9.20;;;10.70;99.90;;;;;;5016619;28;20088;-84
2022/05/06 05:56:55;;;;;;;22.60;9.10;;;10.90;99.90;;;;;;5017271;28;20037;-84
2022/05/06 05:59:22;;;;;;;22.83;9.40;;;10.90;99.90;;;;;;5016697;28;20054;-83
2022/05/06 06:01:49;;;;;;;19.13;9.30;;;10.80;99.90;;;;;;5015376;28;20041;-84
2022/05/06 06:04:15;;;;;;;18.67;8.98;;;11.00;99.90;;;;;;4998597;28;20054;-84
2022/05/06 06:06:42;;;;;;;20.20;9.43;;;10.90;99.90;;;;;;5015983;28;20058;-84
2022/05/06 06:09:09;;;;;;;19.25;9.02;;;10.90;99.90;;;;;;4998905;28;20499;-84
2022/05/06 06:11:35;;;;;;;18.65;9.68;;;10.90;99.90;;;;;;5014863;28;20084;-84
2022/05/06 06:14:02;;;;;;;18.55;10.38;;;11.00;99.90;;;;;;5014930;28;20516;-84
2022/05/06 06:16:29;;;;;;;23.85;10.30;;;11.20;99.90;;;;;;4998420;28;20060;-84
2022/05/06 06:18:58;;;;;;;21.23;10.23;;;11.20;99.90;;;;;;4997166;28;20046;-83
2022/05/06 06:21:25;;;;;;;17.83;9.55;;;11.20;99.90;;;;;;4998514;28;20041;-84
2022/05/06 06:23:51;;;;;;;27.92;9.73;;;11.20;99.90;;;;;;4998241;28;20125;-84
2022/05/06 06:26:16;;;;;;;20.20;10.23;;;11.30;99.90;;;;;;5005694;28;20081;-84
2022/05/06 06:28:42;;;;;;;23.42;10.70;;;11.20;99.90;;;;;;5008672;28;20481;-84
2022/05/06 06:31:07;;;;;;;25.83;11.40;;;11.20;99.90;;;;;;5021264;28;20046;-84
2022/05/06 06:33:37;;;;;;;21.38;10.82;;;11.30;99.90;;;;;;5015636;28;20073;-84
2022/05/06 06:36:04;;;;;;;22.08;10.35;;;11.30;99.90;;;;;;4998288;28;20398;-84
2022/05/06 06:38:30;;;;;;;18.63;10.65;;;11.40;99.90;;;;;;4998265;28;20477;-84
2022/05/06 06:40:56;;;;;;;22.80;11.32;;;11.40;99.90;;;;;;4998020;28;20078;-84
2022/05/06 06:43:21;;;;;;;18.98;10.57;;;11.40;99.90;;;;;;4998081;28;20054;-84
2022/05/06 06:45:47;;;;;;;20.85;10.63;;;11.50;99.90;;;;;;4998008;28;20477;-84
2022/05/06 06:48:13;;;;;;;18.27;10.60;;;11.50;99.90;;;;;;4997807;28;20627;-84
2022/05/06 06:50:41;;;;;;;24.33;10.50;;;11.60;99.90;;;;;;4997827;28;20504;-84
2022/05/06 06:53:07;;;;;;;18.20;10.60;;;11.60;99.90;;;;;;5000649;28;20049;-84
2022/05/06 06:55:33;;;;;;;18.23;10.80;;;11.70;99.90;;;;;;4998808;28;20064;-84
2022/05/06 06:57:58;;;;;;;16.83;9.88;;;11.90;99.90;;;;;;5000319;28;20048;-84
2022/05/06 07:00:24;;;;;;;16.60;10.40;;;11.70;99.90;;;;;;5015381;28;20131;-84
2022/05/06 07:02:49;;;;;;;17.80;10.63;;;11.90;99.90;;;;;;5015211;28;21038;-84
2022/05/06 07:05:15;;;;;;;12.10;8.15;;;12.20;99.90;;;;;;4997351;28;20050;-84
2022/05/06 07:13:11;;;;;;;13.30;8.35;;;12.00;99.90;;;;;;4997364;28;20060;-84
2022/05/06 07:15:36;;;;;;;12.48;7.97;;;12.10;99.90;;;;;;4997295;28;20128;-84
2022/05/06 07:18:02;;;;;;;13.55;9.18;;;12.20;99.90;;;;;;4997242;28;20125;-84
2022/05/06 07:20:28;;;;;;;13.57;8.50;;;12.20;99.90;;;;;;5013672;28;20410;-84
2022/05/06 07:22:54;;;;;;;14.57;8.77;;;12.30;99.90;;;;;;4997412;28;20073;-84
2022/05/06 07:25:19;;;;;;;11.82;7.55;;;12.30;99.90;;;;;;4997244;28;20049;-84
2022/05/06 07:27:45;;;;;;;13.18;8.38;;;12.50;99.90;;;;;;4997199;28;20049;-84
2022/05/06 07:30:12;;;;;;;12.73;8.02;;;12.40;99.90;;;;;;5014301;28;20116;-84
2022/05/06 07:32:37;;;;;;;12.45;8.30;;;12.60;99.90;;;;;;4996821;28;20068;-84
2022/05/06 07:35:04;;;;;;;11.40;7.45;;;12.70;99.90;;;;;;4996958;28;20132;-84
2022/05/06 07:37:33;;;;;;;11.52;7.75;;;12.70;99.90;;;;;;5014282;28;20041;-84
2022/05/06 07:40:03;;;;;;;10.95;7.50;;;12.90;99.90;;;;;;4997195;28;20459;-84
2022/05/06 07:42:30;;;;;;;11.95;7.80;;;12.90;99.90;;;;;;5014570;28;20546;-84
2022/05/06 07:44:59;;;;;;;13.35;8.57;;;12.90;99.90;;;;;;5013101;28;20061;-84
2022/05/06 07:47:25;;;;;;;11.68;7.50;;;12.90;99.90;;;;;;4996693;28;20046;-85
2022/05/06 07:49:51;;;;;;;10.55;7.43;;;13.20;99.90;;;;;;5013198;28;20057;-83
2022/05/06 07:52:17;;;;;;;11.25;6.95;;;13.10;99.90;;;;;;5014660;28;20045;-84
2022/05/06 07:54:43;;;;;;;11.05;7.60;;;13.40;99.90;;;;;;4996973;28;20050;-84
2022/05/06 07:57:08;;;;;;;10.10;7.72;;;13.50;99.90;;;;;;5014242;28;20547;-84
2022/05/06 07:59:34;;;;;;;9.55;6.93;;;13.90;99.90;;;;;;4996760;28;20513;-85
2022/05/06 08:04:48;;;;;;;11.23;7.45;;;14.40;99.90;;;;;;5014238;28;20053;-84
2022/05/06 08:07:14;;;;;;;9.15;6.13;;;14.50;99.90;;;;;;4996312;28;20508;-84
2022/05/06 08:09:40;;;;;;;9.38;6.53;;;14.50;99.90;;;;;;4996661;28;20076;-85
2022/05/06 08:12:06;;;;;;;9.68;6.63;;;14.60;99.90;;;;;;5013125;28;20060;-85
2022/05/06 08:14:32;;;;;;;9.57;6.90;;;14.70;99.90;;;;;;4996442;28;20058;-85
2022/05/06 08:16:59;;;;;;;10.30;6.30;;;14.80;99.90;;;;;;5012835;28;20056;-85
2022/05/06 08:19:25;;;;;;;8.60;5.85;;;14.80;99.90;;;;;;4996351;28;20068;-85
2022/05/06 08:21:51;;;;;;;8.68;5.97;;;14.90;99.90;;;;;;4996316;28;20061;-85
2022/05/06 08:24:18;;;;;;;10.05;5.80;;;14.80;99.90;;;;;;4996331;28;20037;-85
2022/05/06 08:26:44;;;;;;;7.43;5.38;;;14.80;99.90;;;;;;4996233;28;20084;-84
2022/05/06 08:29:09;;;;;;;10.75;5.32;;;14.90;99.90;;;;;;5013889;28;20096;-85
2022/05/06 08:31:38;;;;;;;7.40;5.35;;;15.00;99.90;;;;;;4996339;28;20045;-85
2022/05/06 08:34:08;;;;;;;8.15;5.90;;;15.10;99.90;;;;;;5013579;28;20059;-85
2022/05/06 08:36:39;;;;;;;7.18;5.55;;;15.10;99.90;;;;;;5014114;28;20052;-84
2022/05/06 08:39:06;;;;;;;8.07;5.55;;;15.00;99.90;;;;;;4996214;28;20050;-84
2022/05/06 08:41:32;;;;;;;7.93;5.85;;;15.00;99.90;;;;;;5001221;28;20106;-84
2022/05/06 08:50:50;;;;;;;9.00;5.25;;;14.90;99.90;;;;;;5018201;28;20404;-84
2022/05/06 08:52:17;;;;;;;6.95;5.10;;;15.00;99.90;;;;;;5000246;28;20461;-84
2022/05/06 08:54:43;;;;;;;6.55;4.85;;;15.00;99.90;;;;;;5000053;28;20081;-84
2022/05/06 08:57:09;;;;;;;7.13;4.88;;;15.10;99.90;;;;;;5016638;28;20096;-84
2022/05/06 08:59:34;;;;;;;6.38;4.65;;;15.10;99.90;;;;;;4983906;28;20553;-84
2022/05/06 09:02:00;;;;;;;6.70;4.72;;;15.10;99.90;;;;;;5000074;28;20050;-84
2022/05/06 09:04:25;;;;;;;6.88;4.80;;;15.20;99.90;;;;;;4999871;28;20050;-85
2022/05/06 09:07:13;;;;;;;6.78;4.45;;;15.30;99.90;;;;;;5000179;28;20053;-84
2022/05/06 09:09:38;;;;;;;6.00;4.43;;;15.50;99.90;;;;;;5011075;28;20084;-84
2022/05/06 09:17:45;;;;;;;6.15;4.30;;;15.80;99.90;;;;;;4999475;28;20046;-84
2022/05/06 09:20:19;;;;;;;6.18;4.25;;;15.80;99.90;;;;;;5000152;28;20481;-84
2022/05/06 09:22:44;;;;;;;5.75;4.13;;;16.30;99.90;;;;;;5016074;28;20056;-84
2022/05/06 09:25:10;;;;;;;6.57;4.32;;;16.50;99.90;;;;;;5002744;28;20552;-84
2022/05/06 09:27:35;;;;;;;5.55;4.07;;;16.60;99.90;;;;;;5017099;28;20045;-84
2022/05/06 09:30:08;;;;;;;6.22;4.10;;;16.40;99.90;;;;;;5015628;28;20046;-84
2022/05/06 09:32:36;;;;;;;5.20;3.72;;;16.40;99.90;;;;;;4998884;28;20138;-84
2022/05/06 09:35:09;;;;;;;6.07;4.38;;;16.40;99.90;;;;;;4999337;28;20125;-84
2022/05/06 09:37:41;;;;;;;5.63;3.97;;;16.60;99.90;;;;;;5015392;28;20076;-85
2022/05/06 09:40:11;;;;;;;5.97;4.13;;;16.60;99.90;;;;;;5015776;28;20057;-85
2022/05/06 09:42:55;;;;;;;6.20;3.75;;;16.90;99.90;;;;;;4998976;28;20041;-85
2022/05/06 09:45:32;;;;;;;6.10;3.63;;;17.10;99.90;;;;;;4999146;28;20054;-85
2022/05/06 09:47:59;;;;;;;5.72;3.67;;;17.30;99.90;;;;;;4999137;28;20050;-85
2022/05/06 09:50:33;;;;;;;5.35;3.78;;;17.60;99.90;;;;;;5016577;28;20121;-86
2022/05/06 09:53:04;;;;;;;5.68;3.70;;;17.80;99.90;;;;;;4998668;28;20046;-85
2022/05/06 09:55:30;;;;;;;4.53;3.47;;;17.80;99.90;;;;;;4999109;28;20429;-85
2022/05/06 09:57:59;;;;;;;4.95;3.50;;;17.70;99.90;;;;;;4998862;28;20045;-85
2022/05/06 10:00:27;;;;;;;5.00;3.45;;;17.70;99.90;;;;;;4999094;28;20056;-85
2022/05/06 10:02:53;;;;;;;6.03;3.83;;;17.60;99.90;;;;;;4998847;28;20049;-85
2022/05/06 10:05:19;;;;;;;8.10;4.40;;;17.60;99.90;;;;;;4998629;28;20532;-85
2022/05/06 10:07:46;;;;;;;5.38;3.97;;;17.70;99.90;;;;;;5014818;28;20046;-85
2022/05/06 10:10:25;;;;;;;6.25;4.28;;;17.90;99.90;;;;;;4998547;28;20049;-85
2022/05/06 10:13:01;;;;;;;5.30;4.15;;;18.10;99.90;;;;;;4998519;28;20046;-85
2022/05/06 10:15:30;;;;;;;7.15;3.97;;;18.30;99.90;;;;;;4998419;28;20053;-85
2022/05/06 10:18:02;;;;;;;7.32;5.03;;;18.50;99.90;;;;;;5016081;28;20049;-85
2022/05/06 10:20:34;;;;;;;6.30;5.07;;;18.70;99.90;;;;;;4998582;28;20069;-85
2022/05/06 10:23:11;;;;;;;7.13;5.03;;;18.80;99.90;;;;;;5014874;28;20041;-85
2022/05/06 10:25:40;;;;;;;7.05;4.95;;;18.90;99.90;;;;;;4998532;28;20524;-85
2022/05/06 10:34:08;;;;;;;8.90;5.68;;;19.10;99.90;;;;;;4998001;28;20066;-84
2022/05/06 10:36:50;;;;;;;7.45;5.38;;;19.30;99.90;;;;;;5017209;28;20042;-85
2022/05/06 10:39:37;;;;;;;7.97;5.10;;;19.30;99.90;;;;;;5001061;28;20489;-85
2022/05/06 10:42:09;;;;;;;7.28;4.70;;;19.40;99.90;;;;;;5015844;28;20077;-85
2022/05/06 10:44:41;;;;;;;5.88;4.68;;;19.50;99.90;;;;;;5014654;28;20089;-85
2022/05/06 10:47:13;;;;;;;5.82;4.95;;;19.50;99.90;;;;;;5015578;28;20049;-85
2022/05/06 10:49:39;;;;;;;8.35;4.65;;;19.60;99.90;;;;;;5014430;28;20054;-85
2022/05/06 10:52:26;;;;;;;8.27;5.00;;;19.60;99.90;;;;;;5015593;28;20056;-85
2022/05/06 10:54:54;;;;;;;5.80;4.38;;;19.70;99.90;;;;;;5015508;28;20489;-85
2022/05/06 10:57:22;;;;;;;5.85;4.20;;;19.80;99.90;;;;;;4997783;28;20050;-85
2022/05/06 11:00:02;;;;;;;8.57;5.97;;;19.90;99.90;;;;;;4997796;28;20129;-85
2022/05/06 11:02:38;;;;;;;7.53;4.95;;;20.10;99.90;;;;;;4997912;28;20380;-84
2022/05/06 11:05:05;;;;;;;7.45;5.20;;;20.10;99.90;;;;;;4997299;28;20045;-84
2022/05/06 11:07:34;;;;;;;9.27;5.10;;;20.20;99.90;;;;;;5016987;28;20053;-84
2022/05/06 11:10:08;;;;;;;7.38;6.07;;;20.40;99.90;;;;;;5015852;28;20045;-85
2022/05/06 11:12:37;;;;;;;8.02;5.55;;;20.60;99.90;;;;;;5014138;28;20093;-85
2022/05/06 11:15:05;;;;;;;10.50;5.18;;;20.70;99.90;;;;;;5015117;28;20050;-85
2022/05/06 11:17:32;;;;;;;7.28;5.10;;;20.80;99.90;;;;;;4997316;28;20046;-85
2022/05/06 11:20:02;;;;;;;8.75;5.40;;;20.90;99.90;;;;;;4997389;28;20436;-85
2022/05/06 11:22:28;;;;;;;6.97;4.85;;;21.10;99.90;;;;;;5014841;28;20115;-85
2022/05/06 11:24:57;;;;;;;7.78;5.00;;;21.20;99.90;;;;;;5014902;28;20093;-85
2022/05/06 11:27:23;;;;;;;6.57;4.80;;;21.30;99.90;;;;;;4998569;28;20045;-85
2022/05/06 11:29:55;;;;;;;8.48;4.47;;;21.30;99.90;;;;;;4997628;28;20546;-85
2022/05/06 11:32:22;;;;;;;6.93;4.13;;;21.40;99.90;;;;;;5013390;28;20409;-85
2022/05/06 11:35:11;;;;;;;6.40;4.10;;;21.50;99.90;;;;;;4997048;28;20054;-85
2022/05/06 11:37:41;;;;;;;6.85;4.03;;;21.60;99.90;;;;;;4996925;28;20029;-85
2022/05/06 11:40:32;;;;;;;5.68;3.95;;;21.60;99.90;;;;;;4980835;28;20053;-85
2022/05/06 11:43:06;;;;;;;6.30;3.65;;;21.70;99.90;;;;;;5014659;28;20038;-85
2022/05/06 11:48:20;;;;;;;6.07;4.45;;;21.70;99.90;;;;;;5015037;28;20105;-84
2022/05/06 11:50:48;;;;;;;5.53;3.63;;;21.60;99.90;;;;;;4996611;28;20048;-85
2022/05/06 11:53:17;;;;;;;5.97;3.33;;;21.70;99.90;;;;;;5013038;28;20045;-85
2022/05/06 11:55:46;;;;;;;5.57;3.20;;;21.80;99.90;;;;;;4996910;28;20485;-84
2022/05/06 11:58:14;;;;;;;6.95;4.85;;;21.90;99.90;;;;;;4996795;28;20081;-86
2022/05/06 12:00:41;;;;;;;7.30;4.85;;;21.90;99.90;;;;;;5014298;28;20037;-85
2022/05/06 12:03:08;;;;;;;5.40;3.72;;;22.00;99.90;;;;;;4996721;28;20045;-84
2022/05/06 12:05:34;;;;;;;5.20;3.40;;;22.10;99.90;;;;;;5014064;28;20489;-84
2022/05/06 12:08:00;;;;;;;5.22;3.08;;;22.20;99.90;;;;;;5014211;28;20072;-84
2022/05/06 12:10:29;;;;;;;5.15;2.63;;;22.30;99.90;;;;;;4996741;28;20100;-85
2022/05/06 12:12:56;;;;;;;6.75;4.15;;;22.30;99.90;;;;;;4996753;28;20049;-85
2022/05/06 12:15:29;;;;;;;4.55;2.75;;;22.40;99.90;;;;;;4996649;28;20401;-85
2022/05/06 12:18:05;;;;;;;8.27;4.60;;;22.40;99.90;;;;;;4995850;28;20057;-85
2022/05/06 12:20:31;;;;;;;7.13;4.15;;;22.50;99.90;;;;;;4996524;28;20119;-83
2022/05/06 12:23:00;;;;;;;9.50;5.32;;;22.50;99.90;;;;;;5016021;28;20053;-84
2022/05/06 12:25:27;;;;;;;6.78;4.50;;;22.50;99.90;;;;;;4980006;28;20068;-85
2022/05/06 12:28:23;;;;;;;9.13;4.60;;;22.40;99.90;;;;;;5012899;28;20460;-85
2022/05/06 12:30:59;;;;;;;7.03;4.32;;;22.40;99.90;;;;;;4937563;29;20554;-85
2022/05/06 12:33:41;;;;;;;7.45;4.55;;;22.50;99.90;;;;;;4953345;29;20142;-86
2022/05/06 12:36:08;;;;;;;8.73;5.90;;;22.50;99.90;;;;;;4953564;29;20099;-84
2022/05/06 12:38:43;;;;;;;7.60;5.25;;;22.50;99.90;;;;;;4955081;29;20039;-85
2022/05/06 12:41:23;;;;;;;11.85;7.97;;;22.50;99.90;;;;;;4966363;29;20114;-85
2022/05/06 12:43:50;;;;;;;13.65;9.27;;;22.60;99.90;;;;;;4960581;29;20054;-85
2022/05/06 12:46:26;;;;;;;9.77;7.80;;;22.70;99.90;;;;;;4939398;29;20047;-85
2022/05/06 12:51:39;;;;;;;14.32;9.98;;;22.90;99.90;;;;;;4942616;29;20047;-85
2022/05/06 12:54:09;;;;;;;14.35;10.27;;;22.90;99.90;;;;;;4953405;29;20450;-85
2022/05/06 12:56:35;;;;;;;15.18;10.32;;;22.80;99.90;;;;;;4937304;29;20549;-85
2022/05/06 12:59:02;;;;;;;17.73;11.15;;;23.00;99.90;;;;;;4953297;29;20478;-86
2022/05/06 13:01:27;;;;;;;16.50;11.50;;;23.20;99.90;;;;;;4937301;29;20056;-85
2022/05/06 13:03:53;;;;;;;17.15;11.18;;;23.10;99.90;;;;;;4953242;29;20047;-85
2022/05/06 13:06:19;;;;;;;14.98;10.68;;;23.30;99.90;;;;;;4962182;28;20060;-85
2022/05/06 13:08:44;;;;;;;15.57;10.27;;;23.40;99.90;;;;;;4996107;28;20089;-85
2022/05/06 13:11:10;;;;;;;14.32;9.80;;;23.40;99.90;;;;;;4996034;28;20167;-86
2022/05/06 13:13:36;;;;;;;14.63;9.57;;;23.50;99.90;;;;;;4995940;28;20042;-86
2022/05/06 13:16:02;;;;;;;13.73;9.10;;;23.60;99.90;;;;;;4995896;28;20080;-85
2022/05/06 13:18:30;;;;;;;13.98;9.40;;;23.70;99.90;;;;;;5012235;28;20050;-86
2022/05/06 13:20:56;;;;;;;13.90;9.98;;;23.90;99.90;;;;;;5012056;28;20085;-85
2022/05/06 13:23:23;;;;;;;11.65;9.15;;;24.10;99.90;;;;;;4995726;28;20084;-85